Linda Moran — WDE4187 — position and weather

sailwx.info

Track history (hours):
 
Tides and Currents Weather Stations Pressure Air Temp Water Temp Dewpoint Dewpoint Depression Visibility Wind Speed Wind Dir Waves Ship Positions

Linda Moran

Owner: MORAN TOWING CORP., NEW CANAAN, CT. More information available from US FCC via Universal Licensing System and Coast Guard Vessel Documentation Center.

Last reported at 2017-Feb-24 21:31 UTC. Time now 2017-Feb-24 21:35 UTC.
Position N 39°35' W 075°36'.

Length 156 m; draft 5.2 m.

Type: . MMSI: 367349860.

Date/timePositionNaut miles runAvg speedWind from/ knotsBaromVisibWave heightAir tempDewpointWater temp
2017-Feb-24 21:31N 39°35' W 075°36'0 0.0
2017-Feb-24 20:31N 39°35' W 075°36'0 0.0
2017-Feb-24 19:31N 39°35' W 075°36'0 0.0
2017-Feb-24 18:31N 39°35' W 075°36'0 0.0
2017-Feb-24 17:31N 39°35' W 075°36'3 2.7
2017-Feb-24 16:34N 39°34' W 075°33'0 0.4
2017-Feb-24 15:33N 39°33' W 075°33'0 0.0
2017-Feb-24 14:33N 39°33' W 075°33'0 0.0
2017-Feb-24 13:33N 39°33' W 075°33'0 0.0
2017-Feb-24 12:33N 39°33' W 075°33'0 0.0
2017-Feb-24 11:33N 39°33' W 075°33'0 0.1
2017-Feb-24 10:33N 39°33' W 075°33'0 0.2
2017-Feb-24 09:33N 39°33' W 075°33'0 0.0
2017-Feb-24 08:33N 39°33' W 075°33'6 6.6
2017-Feb-24 07:33N 39°40' W 075°32'1110.9
2017-Feb-24 06:33N 39°49' W 075°24'9 9.2
2017-Feb-24 05:33N 39°52' W 075°13'7 7.3
2017-Feb-24 04:33N 39°58' W 075°08'3 2.6
2017-Feb-24 03:33N 39°59' W 075°04'0 0.0
2017-Feb-24 02:33N 39°59' W 075°04'0 0.0
2017-Feb-24 01:33N 39°59' W 075°04'0 0.0
2017-Feb-24 00:33N 39°59' W 075°04'0 0.0
2017-Feb-23 23:32N 39°59' W 075°04'0 0.0
2017-Feb-23 22:32N 39°59' W 075°04'0 0.0
2017-Feb-23 21:32N 39°59' W 075°04'0 0.0
2017-Feb-23 20:32N 39°59' W 075°04'0 0.0
2017-Feb-23 19:32N 39°59' W 075°04'0 0.0
2017-Feb-23 18:32N 39°59' W 075°04'0 0.0
2017-Feb-23 17:32N 39°59' W 075°04'0 0.0
2017-Feb-23 16:32N 39°59' W 075°04'0 0.0
2017-Feb-23 15:32N 39°59' W 075°04'0 0.0
2017-Feb-23 14:32N 39°59' W 075°04'0 0.0
2017-Feb-23 13:32N 39°59' W 075°04'0 0.0
2017-Feb-23 12:32N 39°59' W 075°04'0 0.0
2017-Feb-23 11:32N 39°59' W 075°04'0 0.0
2017-Feb-23 10:32N 39°59' W 075°04'0 0.0
2017-Feb-23 09:32N 39°59' W 075°04'0 0.0
2017-Feb-23 08:33N 39°59' W 075°04'5 4.8
2017-Feb-23 07:33N 39°55' W 075°08'7 7.4
2017-Feb-23 06:33N 39°51' W 075°16'8 7.7
2017-Feb-23 05:33N 39°48' W 075°25'8 8.4
2017-Feb-23 04:33N 39°41' W 075°31'7 7.1
2017-Feb-23 03:34N 39°34' W 075°33'2 2.0
2017-Feb-23 02:33N 39°35' W 075°35'0 0.0
2017-Feb-23 01:31N 39°35' W 075°35'0 0.0
2017-Feb-23 00:31N 39°35' W 075°35'0 0.0
2017-Feb-22 23:28N 39°35' W 075°35'0 0.0
2017-Feb-22 22:31N 39°35' W 075°35'0 0.0
2017-Feb-22 21:31N 39°35' W 075°35'0 0.0
2017-Feb-22 20:31N 39°35' W 075°35'0 0.0
2017-Feb-22 19:31N 39°35' W 075°35'0 0.0
2017-Feb-22 18:31N 39°35' W 075°35'0 0.0
2017-Feb-22 17:31N 39°35' W 075°35'0 0.0
2017-Feb-22 16:31N 39°35' W 075°35'1 1.4
2017-Feb-22 15:34N 39°34' W 075°34'2 2.1
2017-Feb-22 14:33N 39°32' W 075°33'0 0.1
2017-Feb-22 13:33N 39°33' W 075°33'0 0.0
2017-Feb-22 12:33N 39°33' W 075°33'0 0.0
2017-Feb-22 11:33N 39°33' W 075°33'0 0.0
2017-Feb-22 10:33N 39°33' W 075°33'0 0.0
2017-Feb-22 09:33N 39°33' W 075°33'0 0.2
2017-Feb-22 08:33N 39°32' W 075°33'0 0.0
2017-Feb-22 07:33N 39°32' W 075°33'0 0.0
2017-Feb-22 06:33N 39°32' W 075°33'0 0.0
2017-Feb-22 05:33N 39°32' W 075°33'0 0.0
2017-Feb-22 04:33N 39°32' W 075°33'0 0.0
2017-Feb-22 03:33N 39°32' W 075°33'0 0.2
2017-Feb-22 02:33N 39°33' W 075°33'0 0.0
2017-Feb-22 01:33N 39°33' W 075°33'0 0.0
2017-Feb-22 00:33N 39°33' W 075°33'0 0.0
2017-Feb-21 23:33N 39°33' W 075°33'0 0.0
2017-Feb-21 22:33N 39°33' W 075°33'0 0.0
2017-Feb-21 21:33N 39°33' W 075°33'0 0.0
2017-Feb-21 20:33N 39°33' W 075°33'0 0.2
2017-Feb-21 19:33N 39°32' W 075°33'0 0.4
2017-Feb-21 18:33N 39°33' W 075°33'8 8.2
2017-Feb-21 17:33N 39°41' W 075°31'2 1.8
2017-Feb-21 16:33N 39°43' W 075°31'0 0.0
2017-Feb-21 15:33N 39°43' W 075°31'0 0.0
2017-Feb-21 14:33N 39°43' W 075°31'0 0.0
2017-Feb-21 13:33N 39°43' W 075°31'0 0.0
2017-Feb-21 12:33N 39°43' W 075°31'0 0.0
2017-Feb-21 11:32N 39°43' W 075°31'0 0.0
2017-Feb-21 10:32N 39°43' W 075°31'0 0.0
2017-Feb-21 09:32N 39°43' W 075°31'0 0.0
2017-Feb-21 08:32N 39°43' W 075°31'2 2.4
2017-Feb-21 07:33N 39°40' W 075°32'7 7.0
2017-Feb-21 06:33N 39°33' W 075°32'7 7.2
2017-Feb-21 05:33N 39°26' W 075°32'8 7.7
2017-Feb-21 04:33N 39°20' W 075°26'8 7.8
2017-Feb-21 03:33N 39°15' W 075°19'8 8.3
2017-Feb-21 02:33N 39°08' W 075°13'9 8.5
2017-Feb-21 01:32N 38°60' W 075°08'59 7.3
2017-Feb-20 17:32N 39°33' W 074°06'1010.0
2017-Feb-20 16:33N 39°42' W 074°00'41 9.8
2017-Feb-20 12:19N 40°23' W 073°54'10 8.8
2017-Feb-20 11:09N 40°32' W 074°01'610.3
2017-Feb-20 10:33N 40°38' W 074°03'8 8.4
2017-Feb-20 09:33N 40°45' W 073°58'4 3.9
2017-Feb-20 08:33N 40°48' W 073°54'0 0.0
2017-Feb-20 00:21N 40°48' W 073°54'0 0.0
2017-Feb-19 22:33N 40°48' W 073°54'1 0.0
2017-Feb-19 08:29N 40°48' W 073°55'6 6.5
2017-Feb-19 07:33N 40°42' W 073°59'7 7.3
2017-Feb-19 06:33N 40°36' W 074°02'7 6.8
2017-Feb-19 05:32N 40°30' W 073°57'6 6.1
2017-Feb-19 04:32N 40°25' W 073°53'43 7.2
2017-Feb-18 22:33N 39°42' W 073°60'9 9.1
2017-Feb-18 21:30N 39°34' W 074°06'63 9.0
2017-Feb-18 14:33N 38°48' W 075°02'2010.0
2017-Feb-18 12:33N 39°06' W 075°12'1110.6
2017-Feb-18 11:33N 39°15' W 075°20'1010.3
2017-Feb-18 10:33N 39°23' W 075°28'8 8.4
2017-Feb-18 09:33N 39°30' W 075°33'5 5.1
2017-Feb-18 08:33N 39°35' W 075°36'0 0.0
2017-Feb-18 07:33N 39°35' W 075°36'0 0.0
2017-Feb-18 06:33N 39°35' W 075°36'0 0.0
2017-Feb-18 05:33N 39°35' W 075°36'0 0.0
2017-Feb-18 04:33N 39°35' W 075°36'0 0.0
2017-Feb-18 03:33N 39°35' W 075°36'0 0.0
2017-Feb-18 02:33N 39°35' W 075°36'0 0.0
2017-Feb-18 01:33N 39°35' W 075°36'0 0.0
2017-Feb-18 00:33N 39°35' W 075°36'0 0.0
2017-Feb-17 23:33N 39°35' W 075°36'0 0.0
2017-Feb-17 22:33N 39°35' W 075°36'0 0.0
2017-Feb-17 21:33N 39°35' W 075°36'0 0.0
2017-Feb-17 20:33N 39°35' W 075°36'0 0.0
2017-Feb-17 19:33N 39°35' W 075°36'0 0.0
2017-Feb-17 18:33N 39°35' W 075°36'0 0.0
2017-Feb-17 17:33N 39°35' W 075°36'0 0.0
2017-Feb-17 16:33N 39°35' W 075°36'0 0.0
2017-Feb-17 15:33N 39°35' W 075°36'0 0.0
2017-Feb-17 14:33N 39°35' W 075°36'0 0.0
2017-Feb-17 13:33N 39°35' W 075°36'0 0.0
2017-Feb-17 12:33N 39°35' W 075°36'3 2.9
2017-Feb-17 11:33N 39°33' W 075°33'0 0.1
2017-Feb-17 10:32N 39°33' W 075°33'0 0.0
2017-Feb-17 09:32N 39°33' W 075°33'0 0.1
2017-Feb-17 08:32N 39°33' W 075°33'0 0.0
2017-Feb-17 07:32N 39°33' W 075°33'0 0.0
2017-Feb-17 06:32N 39°33' W 075°33'0 0.0
2017-Feb-17 05:32N 39°33' W 075°33'0 0.1
2017-Feb-17 04:32N 39°33' W 075°33'0 0.0
2017-Feb-17 03:32N 39°33' W 075°33'0 0.0
2017-Feb-17 02:32N 39°33' W 075°33'0 0.0
2017-Feb-17 01:32N 39°33' W 075°33'0 0.0
2017-Feb-17 00:32N 39°33' W 075°33'0 0.0
2017-Feb-16 23:32N 39°33' W 075°33'0 0.0
2017-Feb-16 22:32N 39°33' W 075°33'0 0.0
2017-Feb-16 21:32N 39°33' W 075°33'0 0.1
2017-Feb-16 20:32N 39°33' W 075°33'0 0.0
2017-Feb-16 19:32N 39°33' W 075°33'0 0.0
2017-Feb-16 18:32N 39°33' W 075°33'0 0.0
2017-Feb-16 17:32N 39°33' W 075°33'0 0.1
2017-Feb-16 16:32N 39°33' W 075°33'0 0.0
2017-Feb-16 15:32N 39°33' W 075°33'0 0.0
2017-Feb-16 14:32N 39°33' W 075°33'0 0.0
2017-Feb-16 13:32N 39°33' W 075°33'0 0.5
2017-Feb-16 12:33N 39°34' W 075°33'3 2.6
2017-Feb-16 11:33N 39°35' W 075°36'0 0.0
2017-Feb-16 10:33N 39°35' W 075°36'0 0.0
2017-Feb-16 09:33N 39°35' W 075°36'0 0.0
2017-Feb-16 08:33N 39°35' W 075°36'0 0.0
2017-Feb-16 07:33N 39°35' W 075°36'0 0.0
2017-Feb-16 06:33N 39°35' W 075°36'0 0.0
2017-Feb-16 05:33N 39°35' W 075°36'0 0.0
2017-Feb-16 04:33N 39°35' W 075°36'0 0.0
2017-Feb-16 03:33N 39°35' W 075°36'0 0.0
2017-Feb-16 02:33N 39°35' W 075°36'0 0.0
2017-Feb-16 01:33N 39°35' W 075°36'0 0.0
2017-Feb-16 00:33N 39°35' W 075°36'0 0.0
2017-Feb-15 23:33N 39°35' W 075°36'0 0.0
2017-Feb-15 22:33N 39°35' W 075°36'0 0.0
2017-Feb-15 21:33N 39°35' W 075°36'0 0.0
2017-Feb-15 20:32N 39°35' W 075°36'0 0.0
2017-Feb-15 19:32N 39°35' W 075°36'0 0.0
2017-Feb-15 18:30N 39°35' W 075°36'0 0.0
2017-Feb-15 17:33N 39°35' W 075°36'0 0.0
2017-Feb-15 16:33N 39°35' W 075°36'0 0.0
2017-Feb-15 15:32N 39°35' W 075°36'0 0.0
2017-Feb-15 14:32N 39°35' W 075°36'0 0.0
2017-Feb-15 13:32N 39°35' W 075°36'0 0.0
2017-Feb-15 12:32N 39°35' W 075°36'0 0.0
2017-Feb-15 11:32N 39°35' W 075°36'0 0.0
2017-Feb-15 10:32N 39°35' W 075°36'0 0.0
2017-Feb-15 09:32N 39°35' W 075°36'0 0.0
2017-Feb-15 08:29N 39°35' W 075°36'0 0.0
2017-Feb-15 07:32N 39°35' W 075°36'0 0.0
2017-Feb-15 06:32N 39°35' W 075°36'0 0.0
2017-Feb-15 05:32N 39°35' W 075°36'0 0.0
2017-Feb-15 04:33N 39°35' W 075°36'3 3.2
2017-Feb-15 03:33N 39°33' W 075°33'0 0.1
2017-Feb-15 02:31N 39°33' W 075°33'0 0.1
2017-Feb-15 01:31N 39°33' W 075°33'0 0.0
2017-Feb-15 00:31N 39°33' W 075°33'0 0.0
2017-Feb-14 23:31N 39°33' W 075°33'0 0.0
2017-Feb-14 22:31N 39°33' W 075°33'0 0.0
2017-Feb-14 21:31N 39°33' W 075°33'  
Track history (hours):
 
Tides and Currents Weather Stations Pressure Air Temp Water Temp Dewpoint Dewpoint Depression Visibility Wind Speed Wind Dir Waves Ship Positions

Linda Moran

Owner: MORAN TOWING CORP., NEW CANAAN, CT. More information available from US FCC via Universal Licensing System and Coast Guard Vessel Documentation Center.

Last reported at 2017-Feb-24 21:31 UTC. Time now 2017-Feb-24 21:35 UTC.
Position N 39°35' W 075°36'.

Length 156 m; draft 5.2 m.

Type: . MMSI: 367349860.

Date/timePositionNaut miles runAvg speedWind from/ knotsBaromVisibWave heightAir tempDewpointWater temp
2017-Feb-24 21:31N 39°35' W 075°36'0 0.0
2017-Feb-24 20:31N 39°35' W 075°36'0 0.0
2017-Feb-24 19:31N 39°35' W 075°36'0 0.0
2017-Feb-24 18:31N 39°35' W 075°36'0 0.0
2017-Feb-24 17:31N 39°35' W 075°36'3 2.7
2017-Feb-24 16:34N 39°34' W 075°33'0 0.4
2017-Feb-24 15:33N 39°33' W 075°33'0 0.0
2017-Feb-24 14:33N 39°33' W 075°33'0 0.0
2017-Feb-24 13:33N 39°33' W 075°33'0 0.0
2017-Feb-24 12:33N 39°33' W 075°33'0 0.0
2017-Feb-24 11:33N 39°33' W 075°33'0 0.1
2017-Feb-24 10:33N 39°33' W 075°33'0 0.2
2017-Feb-24 09:33N 39°33' W 075°33'0 0.0
2017-Feb-24 08:33N 39°33' W 075°33'6 6.6
2017-Feb-24 07:33N 39°40' W 075°32'1110.9
2017-Feb-24 06:33N 39°49' W 075°24'9 9.2
2017-Feb-24 05:33N 39°52' W 075°13'7 7.3
2017-Feb-24 04:33N 39°58' W 075°08'3 2.6
2017-Feb-24 03:33N 39°59' W 075°04'0 0.0
2017-Feb-24 02:33N 39°59' W 075°04'0 0.0
2017-Feb-24 01:33N 39°59' W 075°04'0 0.0
2017-Feb-24 00:33N 39°59' W 075°04'0 0.0
2017-Feb-23 23:32N 39°59' W 075°04'0 0.0
2017-Feb-23 22:32N 39°59' W 075°04'0 0.0
2017-Feb-23 21:32N 39°59' W 075°04'0 0.0
2017-Feb-23 20:32N 39°59' W 075°04'0 0.0
2017-Feb-23 19:32N 39°59' W 075°04'0 0.0
2017-Feb-23 18:32N 39°59' W 075°04'0 0.0
2017-Feb-23 17:32N 39°59' W 075°04'0 0.0
2017-Feb-23 16:32N 39°59' W 075°04'0 0.0
2017-Feb-23 15:32N 39°59' W 075°04'0 0.0
2017-Feb-23 14:32N 39°59' W 075°04'0 0.0
2017-Feb-23 13:32N 39°59' W 075°04'0 0.0
2017-Feb-23 12:32N 39°59' W 075°04'0 0.0
2017-Feb-23 11:32N 39°59' W 075°04'0 0.0
2017-Feb-23 10:32N 39°59' W 075°04'0 0.0
2017-Feb-23 09:32N 39°59' W 075°04'0 0.0
2017-Feb-23 08:33N 39°59' W 075°04'5 4.8
2017-Feb-23 07:33N 39°55' W 075°08'7 7.4
2017-Feb-23 06:33N 39°51' W 075°16'8 7.7
2017-Feb-23 05:33N 39°48' W 075°25'8 8.4
2017-Feb-23 04:33N 39°41' W 075°31'7 7.1
2017-Feb-23 03:34N 39°34' W 075°33'2 2.0
2017-Feb-23 02:33N 39°35' W 075°35'0 0.0
2017-Feb-23 01:31N 39°35' W 075°35'0 0.0
2017-Feb-23 00:31N 39°35' W 075°35'0 0.0
2017-Feb-22 23:28N 39°35' W 075°35'0 0.0
2017-Feb-22 22:31N 39°35' W 075°35'0 0.0
2017-Feb-22 21:31N 39°35' W 075°35'0 0.0
2017-Feb-22 20:31N 39°35' W 075°35'0 0.0
2017-Feb-22 19:31N 39°35' W 075°35'0 0.0
2017-Feb-22 18:31N 39°35' W 075°35'0 0.0
2017-Feb-22 17:31N 39°35' W 075°35'0 0.0
2017-Feb-22 16:31N 39°35' W 075°35'1 1.4
2017-Feb-22 15:34N 39°34' W 075°34'2 2.1
2017-Feb-22 14:33N 39°32' W 075°33'0 0.1
2017-Feb-22 13:33N 39°33' W 075°33'0 0.0
2017-Feb-22 12:33N 39°33' W 075°33'0 0.0
2017-Feb-22 11:33N 39°33' W 075°33'0 0.0
2017-Feb-22 10:33N 39°33' W 075°33'0 0.0
2017-Feb-22 09:33N 39°33' W 075°33'0 0.2
2017-Feb-22 08:33N 39°32' W 075°33'0 0.0
2017-Feb-22 07:33N 39°32' W 075°33'0 0.0
2017-Feb-22 06:33N 39°32' W 075°33'0 0.0
2017-Feb-22 05:33N 39°32' W 075°33'0 0.0
2017-Feb-22 04:33N 39°32' W 075°33'0 0.0
2017-Feb-22 03:33N 39°32' W 075°33'0 0.2
2017-Feb-22 02:33N 39°33' W 075°33'0 0.0
2017-Feb-22 01:33N 39°33' W 075°33'0 0.0
2017-Feb-22 00:33N 39°33' W 075°33'0 0.0
2017-Feb-21 23:33N 39°33' W 075°33'0 0.0
2017-Feb-21 22:33N 39°33' W 075°33'0 0.0
2017-Feb-21 21:33N 39°33' W 075°33'0 0.0
2017-Feb-21 20:33N 39°33' W 075°33'0 0.2
2017-Feb-21 19:33N 39°32' W 075°33'0 0.4
2017-Feb-21 18:33N 39°33' W 075°33'8 8.2
2017-Feb-21 17:33N 39°41' W 075°31'2 1.8
2017-Feb-21 16:33N 39°43' W 075°31'0 0.0
2017-Feb-21 15:33N 39°43' W 075°31'0 0.0
2017-Feb-21 14:33N 39°43' W 075°31'0 0.0
2017-Feb-21 13:33N 39°43' W 075°31'0 0.0
2017-Feb-21 12:33N 39°43' W 075°31'0 0.0
2017-Feb-21 11:32N 39°43' W 075°31'0 0.0
2017-Feb-21 10:32N 39°43' W 075°31'0 0.0
2017-Feb-21 09:32N 39°43' W 075°31'0 0.0
2017-Feb-21 08:32N 39°43' W 075°31'2 2.4
2017-Feb-21 07:33N 39°40' W 075°32'7 7.0
2017-Feb-21 06:33N 39°33' W 075°32'7 7.2
2017-Feb-21 05:33N 39°26' W 075°32'8 7.7
2017-Feb-21 04:33N 39°20' W 075°26'8 7.8
2017-Feb-21 03:33N 39°15' W 075°19'8 8.3
2017-Feb-21 02:33N 39°08' W 075°13'9 8.5
2017-Feb-21 01:32N 38°60' W 075°08'59 7.3
2017-Feb-20 17:32N 39°33' W 074°06'1010.0
2017-Feb-20 16:33N 39°42' W 074°00'41 9.8
2017-Feb-20 12:19N 40°23' W 073°54'10 8.8
2017-Feb-20 11:09N 40°32' W 074°01'610.3
2017-Feb-20 10:33N 40°38' W 074°03'8 8.4
2017-Feb-20 09:33N 40°45' W 073°58'4 3.9
2017-Feb-20 08:33N 40°48' W 073°54'0 0.0
2017-Feb-20 00:21N 40°48' W 073°54'0 0.0
2017-Feb-19 22:33N 40°48' W 073°54'1 0.0
2017-Feb-19 08:29N 40°48' W 073°55'6 6.5
2017-Feb-19 07:33N 40°42' W 073°59'7 7.3
2017-Feb-19 06:33N 40°36' W 074°02'7 6.8
2017-Feb-19 05:32N 40°30' W 073°57'6 6.1
2017-Feb-19 04:32N 40°25' W 073°53'43 7.2
2017-Feb-18 22:33N 39°42' W 073°60'9 9.1
2017-Feb-18 21:30N 39°34' W 074°06'63 9.0
2017-Feb-18 14:33N 38°48' W 075°02'2010.0
2017-Feb-18 12:33N 39°06' W 075°12'1110.6
2017-Feb-18 11:33N 39°15' W 075°20'1010.3
2017-Feb-18 10:33N 39°23' W 075°28'8 8.4
2017-Feb-18 09:33N 39°30' W 075°33'5 5.1
2017-Feb-18 08:33N 39°35' W 075°36'0 0.0
2017-Feb-18 07:33N 39°35' W 075°36'0 0.0
2017-Feb-18 06:33N 39°35' W 075°36'0 0.0
2017-Feb-18 05:33N 39°35' W 075°36'0 0.0
2017-Feb-18 04:33N 39°35' W 075°36'0 0.0
2017-Feb-18 03:33N 39°35' W 075°36'0 0.0
2017-Feb-18 02:33N 39°35' W 075°36'0 0.0
2017-Feb-18 01:33N 39°35' W 075°36'0 0.0
2017-Feb-18 00:33N 39°35' W 075°36'0 0.0
2017-Feb-17 23:33N 39°35' W 075°36'0 0.0
2017-Feb-17 22:33N 39°35' W 075°36'0 0.0
2017-Feb-17 21:33N 39°35' W 075°36'0 0.0
2017-Feb-17 20:33N 39°35' W 075°36'0 0.0
2017-Feb-17 19:33N 39°35' W 075°36'0 0.0
2017-Feb-17 18:33N 39°35' W 075°36'0 0.0
2017-Feb-17 17:33N 39°35' W 075°36'0 0.0
2017-Feb-17 16:33N 39°35' W 075°36'0 0.0
2017-Feb-17 15:33N 39°35' W 075°36'0 0.0
2017-Feb-17 14:33N 39°35' W 075°36'0 0.0
2017-Feb-17 13:33N 39°35' W 075°36'0 0.0
2017-Feb-17 12:33N 39°35' W 075°36'3 2.9
2017-Feb-17 11:33N 39°33' W 075°33'0 0.1
2017-Feb-17 10:32N 39°33' W 075°33'0 0.0
2017-Feb-17 09:32N 39°33' W 075°33'0 0.1
2017-Feb-17 08:32N 39°33' W 075°33'0 0.0
2017-Feb-17 07:32N 39°33' W 075°33'0 0.0
2017-Feb-17 06:32N 39°33' W 075°33'0 0.0
2017-Feb-17 05:32N 39°33' W 075°33'0 0.1
2017-Feb-17 04:32N 39°33' W 075°33'0 0.0
2017-Feb-17 03:32N 39°33' W 075°33'0 0.0
2017-Feb-17 02:32N 39°33' W 075°33'0 0.0
2017-Feb-17 01:32N 39°33' W 075°33'0 0.0
2017-Feb-17 00:32N 39°33' W 075°33'0 0.0
2017-Feb-16 23:32N 39°33' W 075°33'0 0.0
2017-Feb-16 22:32N 39°33' W 075°33'0 0.0
2017-Feb-16 21:32N 39°33' W 075°33'0 0.1
2017-Feb-16 20:32N 39°33' W 075°33'0 0.0
2017-Feb-16 19:32N 39°33' W 075°33'0 0.0
2017-Feb-16 18:32N 39°33' W 075°33'0 0.0
2017-Feb-16 17:32N 39°33' W 075°33'0 0.1
2017-Feb-16 16:32N 39°33' W 075°33'0 0.0
2017-Feb-16 15:32N 39°33' W 075°33'0 0.0
2017-Feb-16 14:32N 39°33' W 075°33'0 0.0
2017-Feb-16 13:32N 39°33' W 075°33'0 0.5
2017-Feb-16 12:33N 39°34' W 075°33'3 2.6
2017-Feb-16 11:33N 39°35' W 075°36'0 0.0
2017-Feb-16 10:33N 39°35' W 075°36'0 0.0
2017-Feb-16 09:33N 39°35' W 075°36'0 0.0
2017-Feb-16 08:33N 39°35' W 075°36'0 0.0
2017-Feb-16 07:33N 39°35' W 075°36'0 0.0
2017-Feb-16 06:33N 39°35' W 075°36'0 0.0
2017-Feb-16 05:33N 39°35' W 075°36'0 0.0
2017-Feb-16 04:33N 39°35' W 075°36'0 0.0
2017-Feb-16 03:33N 39°35' W 075°36'0 0.0
2017-Feb-16 02:33N 39°35' W 075°36'0 0.0
2017-Feb-16 01:33N 39°35' W 075°36'0 0.0
2017-Feb-16 00:33N 39°35' W 075°36'0 0.0
2017-Feb-15 23:33N 39°35' W 075°36'0 0.0
2017-Feb-15 22:33N 39°35' W 075°36'0 0.0
2017-Feb-15 21:33N 39°35' W 075°36'0 0.0
2017-Feb-15 20:32N 39°35' W 075°36'0 0.0
2017-Feb-15 19:32N 39°35' W 075°36'0 0.0
2017-Feb-15 18:30N 39°35' W 075°36'0 0.0
2017-Feb-15 17:33N 39°35' W 075°36'0 0.0
2017-Feb-15 16:33N 39°35' W 075°36'0 0.0
2017-Feb-15 15:32N 39°35' W 075°36'0 0.0
2017-Feb-15 14:32N 39°35' W 075°36'0 0.0
2017-Feb-15 13:32N 39°35' W 075°36'0 0.0
2017-Feb-15 12:32N 39°35' W 075°36'0 0.0
2017-Feb-15 11:32N 39°35' W 075°36'0 0.0
2017-Feb-15 10:32N 39°35' W 075°36'0 0.0
2017-Feb-15 09:32N 39°35' W 075°36'0 0.0
2017-Feb-15 08:29N 39°35' W 075°36'0 0.0
2017-Feb-15 07:32N 39°35' W 075°36'0 0.0
2017-Feb-15 06:32N 39°35' W 075°36'0 0.0
2017-Feb-15 05:32N 39°35' W 075°36'0 0.0
2017-Feb-15 04:33N 39°35' W 075°36'3 3.2
2017-Feb-15 03:33N 39°33' W 075°33'0 0.1
2017-Feb-15 02:31N 39°33' W 075°33'0 0.1
2017-Feb-15 01:31N 39°33' W 075°33'0 0.0
2017-Feb-15 00:31N 39°33' W 075°33'0 0.0
2017-Feb-14 23:31N 39°33' W 075°33'0 0.0
2017-Feb-14 22:31N 39°33' W 075°33'0 0.0
2017-Feb-14 21:31N 39°33' W 075°33'  

Dump ship's entire track history